createdAt,value
2019-05-19T00:00:34.774Z,94542.85
2019-05-19T00:03:00.803Z,94535.78
2019-05-19T00:05:26.797Z,94534.45
2019-05-19T00:07:52.879Z,94532.33
2019-05-19T00:10:18.905Z,94525.27
2019-05-19T00:12:44.901Z,94519.12
2019-05-19T00:15:10.927Z,94523.52
2019-05-19T00:17:36.921Z,94523.52
2019-05-19T00:20:02.932Z,94529.67
2019-05-19T00:22:28.931Z,94539.90
2019-05-19T00:24:54.954Z,94534.66
2019-05-19T00:27:20.950Z,94527.09
2019-05-19T00:29:46.960Z,94536.83
2019-05-19T00:32:12.973Z,94531.59
2019-05-19T00:34:38.980Z,94527.72
2019-05-19T00:37:04.999Z,94529.88
2019-05-19T00:39:30.997Z,94533.88
2019-05-19T00:41:57.013Z,94533.05
2019-05-19T00:44:23.007Z,94544.61
2019-05-19T00:46:49.037Z,94539.28
2019-05-19T00:49:15.050Z,94534.88
2019-05-19T00:51:41.052Z,94532.63
2019-05-19T00:54:07.071Z,94539.28
2019-05-19T00:56:33.072Z,94529.14
2019-05-19T00:58:59.076Z,94530.47
2019-05-19T01:01:25.109Z,94530.09
2019-05-19T01:03:51.101Z,94538.99
2019-05-19T01:06:17.118Z,94538.46
2019-05-19T01:08:43.134Z,94539.79
2019-05-19T01:11:09.131Z,94537.66
2019-05-19T01:13:35.162Z,94536.33
2019-05-19T01:16:01.166Z,94531.01
2019-05-19T01:18:27.190Z,94527.11
2019-05-19T01:20:53.199Z,94532.34
2019-05-19T01:23:19.217Z,94522.70
2019-05-19T01:25:45.219Z,94527.52
2019-05-19T01:28:11.211Z,94524.77
2019-05-19T01:30:37.235Z,94516.88
2019-05-19T01:33:03.233Z,94522.20
2019-05-19T01:35:29.250Z,94525.78
2019-05-19T01:37:55.244Z,94525.28
2019-05-19T01:40:21.282Z,94527.11
2019-05-19T01:42:47.280Z,94532.44
2019-05-19T01:45:13.314Z,94526.70
2019-05-19T01:47:39.320Z,94520.05
2019-05-19T01:50:20.681Z,94521.37
2019-05-19T01:52:31.347Z,94518.71
2019-05-19T01:54:57.339Z,94516.05
2019-05-19T01:57:23.361Z,94512.27
2019-05-19T01:59:49.358Z,94509.94
2019-05-19T02:02:15.389Z,94509.94
2019-05-19T02:04:41.380Z,94507.69
2019-05-19T02:07:07.387Z,94506.36
2019-05-19T02:09:33.403Z,94512.89
2019-05-19T02:11:59.401Z,94509.52
2019-05-19T02:14:25.417Z,94514.34
2019-05-19T02:16:51.437Z,94517.92
2019-05-19T02:19:17.433Z,94516.17
2019-05-19T02:21:43.454Z,94521.91
2019-05-19T02:24:09.453Z,94531.73
2019-05-19T02:26:35.466Z,94536.55
2019-05-19T02:29:01.476Z,94534.80
2019-05-19T02:31:27.483Z,94531.73
2019-05-19T02:33:53.502Z,94535.72
2019-05-19T02:36:19.497Z,94525.08
2019-05-19T02:38:45.510Z,94526.81
2019-05-19T02:41:11.601Z,94526.41
2019-05-19T02:43:37.623Z,94536.01
2019-05-19T02:46:03.638Z,94538.29
2019-05-19T02:48:29.630Z,94533.88
2019-05-19T02:50:55.652Z,94537.46
2019-05-19T02:53:21.651Z,94541.45
2019-05-19T02:55:47.662Z,94536.13
2019-05-19T02:58:13.664Z,94536.63
2019-05-19T03:00:39.686Z,94543.70
2019-05-19T03:03:05.681Z,94537.05
2019-05-19T03:05:31.682Z,94541.95
2019-05-19T03:07:57.712Z,94546.36
2019-05-19T03:10:23.698Z,94546.87
2019-05-19T03:12:49.725Z,94546.78
2019-05-19T03:15:15.732Z,94547.60
2019-05-19T03:17:41.748Z,94550.35
2019-05-19T03:20:07.752Z,94545.03
2019-05-19T03:22:33.763Z,94554.76
2019-05-19T03:24:59.775Z,94553.93
2019-05-19T03:27:25.774Z,94555.67
2019-05-19T03:29:51.793Z,94566.31
2019-05-19T03:32:17.799Z,94560.08
2019-05-19T03:34:43.803Z,94561.00
2019-05-19T03:37:09.810Z,94557.00
2019-05-19T03:39:35.805Z,94553.43
2019-05-19T03:42:01.923Z,94557.42
2019-05-19T03:44:27.936Z,94564.48
2019-05-19T03:46:53.940Z,94565.41
2019-05-19T03:49:19.960Z,94563.57
2019-05-19T03:51:45.960Z,94566.73
2019-05-19T03:54:11.977Z,94566.73
2019-05-19T03:56:37.983Z,94563.25
2019-05-19T03:59:03.999Z,94562.33
2019-05-19T04:01:29.986Z,94565.41
2019-05-19T04:03:55.993Z,94571.64
2019-05-19T04:06:22.060Z,94569.39
2019-05-19T04:08:48.057Z,94566.31
2019-05-19T04:11:14.074Z,94569.90
2019-05-19T04:13:40.088Z,94564.98
2019-05-19T04:16:06.121Z,94571.55
2019-05-19T04:18:32.116Z,94564.08
2019-05-19T04:20:58.108Z,94570.72
2019-05-19T04:23:24.114Z,94576.05
2019-05-19T04:25:50.140Z,94581.25
2019-05-19T04:28:16.131Z,94577.25
2019-05-19T04:30:42.152Z,94580.74
2019-05-19T04:33:08.240Z,94586.98
2019-05-19T04:35:34.260Z,94586.48
2019-05-19T04:38:00.259Z,94585.14
2019-05-19T04:40:26.283Z,94581.98
2019-05-19T04:42:52.302Z,94581.03
2019-05-19T04:45:18.659Z,94575.71
2019-05-19T04:47:44.710Z,94573.05
2019-05-19T04:50:10.700Z,94574.38
2019-05-19T04:52:36.700Z,94579.70
2019-05-19T04:55:02.722Z,94585.35
2019-05-19T04:57:28.718Z,94585.77
2019-05-19T04:59:54.891Z,94593.75
2019-05-19T05:02:20.836Z,94589.75
2019-05-19T05:04:46.832Z,94584.44
2019-05-19T05:07:12.858Z,94587.48
2019-05-19T05:09:38.900Z,94578.16
2019-05-19T05:12:04.929Z,94576.73
2019-05-19T05:14:30.904Z,94574.50
2019-05-19T05:16:56.959Z,94572.34
2019-05-19T05:19:22.957Z,94567.84
2019-05-19T05:21:48.954Z,94572.75
2019-05-19T05:24:14.966Z,94571.01
2019-05-19T05:26:40.980Z,94571.83
2019-05-19T05:29:07.118Z,94572.75
2019-05-19T05:31:33.111Z,94575.00
2019-05-19T05:33:59.256Z,94571.01
2019-05-19T05:36:27.759Z,94577.24
2019-05-19T05:38:51.312Z,94571.92
2019-05-19T05:41:17.323Z,94568.84
2019-05-19T05:43:43.338Z,94565.69
2019-05-19T05:46:09.356Z,94570.09
2019-05-19T05:48:35.355Z,94567.93
2019-05-19T05:51:01.401Z,94573.25
2019-05-19T05:53:27.524Z,94565.69
2019-05-19T05:55:53.537Z,94567.42
2019-05-19T05:58:19.536Z,94563.52
2019-05-19T06:00:45.536Z,94562.52
2019-05-19T06:03:11.658Z,94563.65
2019-05-19T06:05:37.703Z,94557.28
2019-05-19T06:08:03.760Z,94566.09
2019-05-19T06:10:29.766Z,94566.09
2019-05-19T06:12:56.432Z,94567.84
2019-05-19T06:15:23.204Z,94575.83
2019-05-19T06:17:49.189Z,94570.09
2019-05-19T06:20:15.771Z,94570.91
2019-05-19T06:22:55.094Z,94573.58
2019-05-19T06:25:07.836Z,94556.78
2019-05-19T06:27:33.853Z,94561.06
2019-05-19T06:29:59.851Z,94558.41
2019-05-19T06:32:25.880Z,94561.48
2019-05-19T06:34:51.898Z,94557.48
2019-05-19T06:37:17.925Z,94557.99
2019-05-19T06:39:43.939Z,94557.08
2019-05-19T06:42:09.936Z,94552.45
2019-05-19T06:44:35.959Z,94548.08
2019-05-19T06:47:01.971Z,94547.14
2019-05-19T06:49:27.985Z,94556.06
2019-05-19T06:51:53.989Z,94552.45
2019-05-19T06:54:20.120Z,94549.70
2019-05-19T06:56:46.137Z,94547.45
2019-05-19T06:59:12.151Z,94552.16
2019-05-19T07:01:38.188Z,94549.91
2019-05-19T07:04:04.199Z,94554.19
2019-05-19T07:06:30.460Z,94541.70
2019-05-19T07:08:56.464Z,94536.80
2019-05-19T07:11:22.473Z,94537.13
2019-05-19T07:13:48.467Z,94542.56
2019-05-19T07:16:14.486Z,94537.25
2019-05-19T07:18:40.496Z,94536.62
2019-05-19T07:21:06.490Z,94544.06
2019-05-19T07:23:32.518Z,94532.29
2019-05-19T07:25:58.523Z,94536.98
2019-05-19T07:28:24.698Z,94540.48
2019-05-19T07:30:50.716Z,94537.72
2019-05-19T07:33:16.718Z,94534.22
2019-05-19T07:35:42.853Z,94535.55
2019-05-19T07:38:08.936Z,94527.16
2019-05-19T07:40:34.937Z,94528.14
2019-05-19T07:43:01.308Z,94526.11
2019-05-19T07:45:27.324Z,94515.25
2019-05-19T07:47:53.352Z,94519.66
2019-05-19T07:50:19.379Z,94515.95
2019-05-19T07:52:45.387Z,94519.56
2019-05-19T07:55:11.380Z,94525.88
2019-05-19T07:57:37.402Z,94522.30
2019-05-19T08:00:03.439Z,94520.69
2019-05-19T08:02:29.474Z,94516.77
2019-05-19T08:04:55.457Z,94516.48
2019-05-19T08:07:21.468Z,94511.03
2019-05-19T08:09:47.488Z,94512.27
2019-05-19T08:12:13.488Z,94508.06
2019-05-19T08:14:39.521Z,94519.21
2019-05-19T08:17:05.589Z,94513.67
2019-05-19T08:19:31.597Z,94506.20
2019-05-19T08:21:57.641Z,94508.05
2019-05-19T08:24:23.700Z,94504.84
2019-05-19T08:26:49.634Z,94503.93
2019-05-19T08:29:15.626Z,94494.90
2019-05-19T08:31:41.649Z,94500.76
2019-05-19T08:34:07.966Z,94497.05
2019-05-19T08:36:33.668Z,94502.38
2019-05-19T08:38:59.676Z,94489.06
2019-05-19T08:41:25.682Z,94488.24
2019-05-19T08:43:53.351Z,94487.23
2019-05-19T08:46:17.753Z,94485.91
2019-05-19T08:48:43.748Z,94484.03
2019-05-19T08:51:09.830Z,94483.66
2019-05-19T08:53:35.827Z,94475.04
2019-05-19T08:56:01.868Z,94478.62
2019-05-19T08:58:27.862Z,94478.11
2019-05-19T09:00:53.860Z,94474.12
2019-05-19T09:03:19.890Z,94476.56
2019-05-19T09:05:47.906Z,94473.17
2019-05-19T09:08:11.983Z,94479.32
2019-05-19T09:10:37.983Z,94473.48
2019-05-19T09:13:04.010Z,94468.45
2019-05-19T09:15:30.093Z,94469.78
2019-05-19T09:17:56.065Z,94462.63
2019-05-19T09:20:22.157Z,94463.03
2019-05-19T09:22:48.191Z,94458.50
2019-05-19T09:25:14.220Z,94450.01
2019-05-19T09:27:40.230Z,94454.92
2019-05-19T09:30:06.361Z,94458.41
2019-05-19T09:32:32.459Z,94449.80
2019-05-19T09:34:58.462Z,94452.75
2019-05-19T09:37:24.542Z,94455.41
2019-05-19T09:39:50.562Z,94440.77
2019-05-19T09:42:16.560Z,94434.93
2019-05-19T09:44:42.579Z,94435.02
2019-05-19T09:47:08.572Z,94434.64
2019-05-19T09:49:34.592Z,94435.76
2019-05-19T09:52:00.610Z,94425.59
2019-05-19T09:54:26.585Z,94421.79
2019-05-19T09:56:52.616Z,94423.22
2019-05-19T09:59:18.626Z,94428.66
2019-05-19T10:01:44.636Z,94430.37
2019-05-19T10:04:10.644Z,94426.29
2019-05-19T10:06:39.234Z,94424.67
2019-05-19T10:09:05.478Z,94418.39
2019-05-19T10:11:31.487Z,94405.81
2019-05-19T10:13:57.480Z,94402.73
2019-05-19T10:16:24.334Z,94402.23
2019-05-19T10:18:50.897Z,94401.69
2019-05-19T10:21:16.924Z,94400.68
2019-05-19T10:23:42.925Z,94399.73
2019-05-19T10:26:11.398Z,94393.20
2019-05-19T10:28:37.567Z,94388.48
2019-05-19T10:31:03.703Z,94388.64
2019-05-19T10:33:30.088Z,94378.42
2019-05-19T10:35:56.102Z,94379.44
2019-05-19T10:38:22.151Z,94386.30
2019-05-19T10:40:48.746Z,94384.84
2019-05-19T10:43:14.840Z,94379.42
2019-05-19T10:45:40.843Z,94372.86
2019-05-19T10:48:06.870Z,94361.56
2019-05-19T10:50:32.873Z,94370.67
2019-05-19T10:52:58.872Z,94366.30
2019-05-19T10:55:36.127Z,94367.41
2019-05-19T10:57:50.965Z,94364.20
2019-05-19T11:00:16.997Z,94364.42
2019-05-19T11:02:42.992Z,94355.80
2019-05-19T11:05:11.211Z,94353.77
2019-05-19T11:07:35.185Z,94356.13
2019-05-19T11:10:01.207Z,94349.97
2019-05-19T11:12:27.216Z,94347.02
2019-05-19T11:14:53.229Z,94352.13
2019-05-19T11:17:19.249Z,94349.55
2019-05-19T11:19:45.248Z,94345.47
2019-05-19T11:22:11.249Z,94349.24
2019-05-19T11:24:37.269Z,94346.26
2019-05-19T11:27:03.278Z,94338.59
2019-05-19T11:29:29.292Z,94341.75
2019-05-19T11:31:56.084Z,94341.75
2019-05-19T11:34:22.095Z,94342.04
2019-05-19T11:36:48.215Z,94336.84
2019-05-19T11:39:14.225Z,94333.27
2019-05-19T11:41:40.304Z,94332.21
2019-05-19T11:44:06.310Z,94333.55
2019-05-19T11:46:32.371Z,94325.27
2019-05-19T11:48:58.309Z,94318.83
2019-05-19T11:51:24.357Z,94318.70
2019-05-19T11:53:50.473Z,94323.11
2019-05-19T11:58:49.704Z,94325.78
2019-05-19T12:01:15.770Z,94329.07
2019-05-19T12:03:41.778Z,94336.55
2019-05-19T12:06:07.800Z,94333.16
2019-05-19T12:08:33.799Z,94338.11
2019-05-19T12:10:59.883Z,94328.78
2019-05-19T12:13:25.898Z,94329.80
2019-05-19T12:15:51.892Z,94327.27
2019-05-19T12:18:17.914Z,94325.30
2019-05-19T12:20:43.909Z,94320.80
2019-05-19T12:23:10.016Z,94310.23
2019-05-19T12:25:36.008Z,94310.23
2019-05-19T12:28:02.066Z,94317.41
2019-05-19T12:30:28.074Z,94318.92
2019-05-19T12:32:54.114Z,94317.72
2019-05-19T12:35:20.242Z,94307.58
2019-05-19T12:37:46.360Z,94307.98
2019-05-19T12:40:12.392Z,94309.32
2019-05-19T12:42:38.419Z,94309.32
2019-05-19T12:45:04.408Z,94308.72
2019-05-19T12:47:30.446Z,94310.36
2019-05-19T12:49:56.449Z,94308.08
2019-05-19T12:52:22.458Z,94309.41
2019-05-19T12:54:48.500Z,94305.55
2019-05-19T12:57:14.504Z,94303.30
2019-05-19T12:59:40.525Z,94294.06
2019-05-19T13:02:06.530Z,94299.30
2019-05-19T13:04:32.597Z,94302.98
2019-05-19T13:06:58.601Z,94300.00
2019-05-19T13:09:24.613Z,94297.75
2019-05-19T13:11:50.634Z,94295.09
2019-05-19T13:14:16.639Z,94302.53
2019-05-19T13:16:42.654Z,94302.03
2019-05-19T13:19:08.654Z,94303.14
2019-05-19T13:21:34.666Z,94297.52
2019-05-19T13:24:00.667Z,94300.98
2019-05-19T13:26:26.685Z,94294.73
2019-05-19T13:28:52.683Z,94293.53
2019-05-19T13:31:18.679Z,94294.86
2019-05-19T13:33:44.702Z,94290.87
2019-05-19T13:36:10.700Z,94290.96
2019-05-19T13:38:36.714Z,94294.16
2019-05-19T13:41:02.731Z,94291.09
2019-05-19T13:43:28.805Z,94295.88
2019-05-19T13:45:54.752Z,94294.95
2019-05-19T13:48:20.780Z,94299.65
2019-05-19T13:50:46.796Z,94293.53
2019-05-19T13:53:12.916Z,94295.27
2019-05-19T13:55:38.953Z,94289.00
2019-05-19T13:58:04.976Z,94286.88
2019-05-19T14:00:30.973Z,94285.95
2019-05-19T14:02:57.008Z,94288.77
2019-05-19T14:05:23.023Z,94288.90
2019-05-19T14:07:49.053Z,94287.86
2019-05-19T14:10:15.076Z,94281.20
2019-05-19T14:12:41.081Z,94276.06
2019-05-19T14:15:07.159Z,94272.47
2019-05-19T14:17:33.161Z,94271.78
2019-05-19T14:19:59.206Z,94280.18
2019-05-19T14:22:25.188Z,94281.52
2019-05-19T14:24:51.246Z,94281.09
2019-05-19T14:27:29.451Z,94282.53
2019-05-19T14:29:43.392Z,94279.86
2019-05-19T14:32:09.694Z,94267.88
2019-05-19T14:34:36.163Z,94277.61
2019-05-19T14:37:02.286Z,94272.28
2019-05-19T14:39:28.308Z,94274.25
2019-05-19T14:41:54.334Z,94279.07
2019-05-19T14:44:20.354Z,94274.77
2019-05-19T14:46:46.348Z,94280.62
2019-05-19T14:49:12.349Z,94276.31
2019-05-19T14:51:38.809Z,94266.99
2019-05-19T14:54:04.812Z,94265.16
2019-05-19T14:56:33.594Z,94265.16
2019-05-19T14:58:56.824Z,94258.49
2019-05-19T15:01:22.981Z,94258.08
2019-05-19T15:03:48.995Z,94251.84
2019-05-19T15:06:15.017Z,94258.78
2019-05-19T15:08:41.045Z,94263.09
2019-05-19T15:11:07.041Z,94256.02
2019-05-19T15:13:33.094Z,94260.11
2019-05-19T15:15:59.082Z,94255.33
2019-05-19T15:18:25.084Z,94245.27
2019-05-19T15:20:51.102Z,94250.00
2019-05-19T15:23:17.540Z,94248.77
2019-05-19T15:25:43.551Z,94246.60
2019-05-19T15:28:09.567Z,94235.58
2019-05-19T15:30:35.564Z,94237.41
2019-05-19T15:33:01.583Z,94232.50
2019-05-19T15:35:27.577Z,94228.59
2019-05-19T15:37:53.622Z,94224.60
2019-05-19T15:40:19.661Z,94217.53
2019-05-19T15:42:45.688Z,94222.26
2019-05-19T15:45:11.798Z,94215.47
2019-05-19T15:47:37.789Z,94211.98
2019-05-19T15:50:03.848Z,94205.23
2019-05-19T15:52:29.891Z,94201.23
2019-05-19T15:54:56.509Z,94203.77
2019-05-19T15:57:22.565Z,94201.11
2019-05-19T15:59:48.607Z,94196.31
2019-05-19T16:02:14.602Z,94197.66
2019-05-19T16:04:40.803Z,94188.20
2019-05-19T16:07:06.820Z,94189.94
2019-05-19T16:09:32.811Z,94186.36
2019-05-19T16:11:58.826Z,94183.56
2019-05-19T16:14:24.822Z,94183.41
2019-05-19T16:16:50.844Z,94183.19
2019-05-19T16:19:16.851Z,94184.52
2019-05-19T16:21:42.884Z,94180.91
2019-05-19T16:24:08.888Z,94184.39
2019-05-19T16:26:35.479Z,94174.79
2019-05-19T16:29:01.507Z,94169.46
2019-05-19T16:31:27.980Z,94178.78
2019-05-19T16:33:54.005Z,94179.29
2019-05-19T16:36:20.038Z,94179.29
2019-05-19T16:38:46.044Z,94179.52
2019-05-19T16:41:12.065Z,94178.59
2019-05-19T16:43:38.084Z,94186.17
2019-05-19T16:46:04.086Z,94180.84
2019-05-19T16:48:30.100Z,94177.77
2019-05-19T16:50:56.091Z,94176.57
2019-05-19T16:53:22.119Z,94177.90
2019-05-19T16:55:48.122Z,94180.56
2019-05-19T16:58:21.253Z,94174.41
2019-05-19T17:00:40.139Z,94174.55
2019-05-19T17:03:06.158Z,94177.08
2019-05-19T17:05:32.249Z,94171.88
2019-05-19T17:07:58.240Z,94171.05
2019-05-19T17:10:24.396Z,94166.65
2019-05-19T17:12:50.387Z,94172.80
2019-05-19T17:15:16.434Z,94171.47
2019-05-19T17:17:42.432Z,94171.47
2019-05-19T17:20:08.531Z,94171.66
2019-05-19T17:22:34.546Z,94170.37
2019-05-19T17:25:00.566Z,94167.02
2019-05-19T17:27:26.582Z,94164.23
2019-05-19T17:29:52.585Z,94169.46
2019-05-19T17:32:18.599Z,94171.30
2019-05-19T17:34:44.596Z,94172.13
2019-05-19T17:37:10.631Z,94153.89
2019-05-19T17:39:36.629Z,94148.56
2019-05-19T17:42:02.734Z,94150.28
2019-05-19T17:44:28.863Z,94149.08
2019-05-19T17:46:55.461Z,94143.11
2019-05-19T17:49:21.497Z,94146.70
2019-05-19T17:51:47.501Z,94149.77
2019-05-19T17:54:13.552Z,94139.24
2019-05-19T17:56:39.581Z,94148.25
2019-05-19T17:59:16.064Z,94141.08
2019-05-19T18:01:31.972Z,94146.28
2019-05-19T18:03:57.991Z,94144.03
2019-05-19T18:06:24.005Z,94145.90
2019-05-19T18:08:50.028Z,94145.77
2019-05-19T18:11:16.101Z,94150.28
2019-05-19T18:13:42.128Z,94146.70
2019-05-19T18:16:08.128Z,94149.26
2019-05-19T18:18:34.151Z,94148.44
2019-05-19T18:21:00.161Z,94159.00
2019-05-19T18:23:26.186Z,94154.17
2019-05-19T18:25:52.200Z,94140.45
2019-05-19T18:28:20.528Z,94142.19
2019-05-19T18:30:47.173Z,94151.61
2019-05-19T18:33:13.364Z,94149.89
2019-05-19T18:35:39.411Z,94151.73
2019-05-19T18:38:05.408Z,94157.48
2019-05-19T18:40:31.507Z,94146.28
2019-05-19T18:42:57.674Z,94156.42
2019-05-19T18:45:23.669Z,94155.61
2019-05-19T18:47:49.685Z,94159.09
2019-05-19T18:50:16.392Z,94156.55
2019-05-19T18:52:42.417Z,94164.55
2019-05-19T18:55:08.422Z,94160.02
2019-05-19T18:57:34.446Z,94154.81
2019-05-19T19:00:00.454Z,94161.06
2019-05-19T19:02:26.719Z,94163.72
2019-05-19T19:04:52.779Z,94169.05
2019-05-19T19:07:19.441Z,94167.20
2019-05-19T19:09:45.453Z,94164.92
2019-05-19T19:12:11.480Z,94175.70
2019-05-19T19:14:37.478Z,94170.37
2019-05-19T19:17:03.527Z,94175.20
2019-05-19T19:19:29.525Z,94179.48
2019-05-19T19:21:56.256Z,94179.06
2019-05-19T19:24:22.272Z,94184.90
2019-05-19T19:26:48.280Z,94192.38
2019-05-19T19:29:14.298Z,94189.72
2019-05-19T19:31:48.185Z,94195.45
2019-05-19T19:34:06.411Z,94195.45
2019-05-19T19:36:32.414Z,94191.88
2019-05-19T19:38:58.430Z,94189.21
2019-05-19T19:41:25.169Z,94200.66
2019-05-19T19:43:51.162Z,94193.08
2019-05-19T19:46:17.388Z,94192.06
2019-05-19T19:48:43.474Z,94188.98
2019-05-19T19:51:10.142Z,94204.97
2019-05-19T19:53:36.512Z,94215.50
2019-05-19T19:56:02.523Z,94212.03
2019-05-19T19:58:28.541Z,94214.16
2019-05-19T20:00:55.407Z,94226.97
2019-05-19T20:03:24.321Z,94223.90
2019-05-19T20:05:50.592Z,94210.16
2019-05-19T20:08:16.641Z,94229.22
2019-05-19T20:10:42.751Z,94237.63
2019-05-19T20:13:08.753Z,94230.84
2019-05-19T20:15:34.798Z,94229.63
2019-05-19T20:18:00.849Z,94233.13
2019-05-19T20:20:26.843Z,94262.80
2019-05-19T20:22:53.703Z,94246.13
2019-05-19T20:25:20.362Z,94233.91
2019-05-19T20:27:46.380Z,94255.63
2019-05-19T20:30:12.396Z,94270.28
2019-05-19T20:32:38.401Z,94251.55
2019-05-19T20:35:04.452Z,94255.54
2019-05-19T20:37:30.417Z,94265.78
2019-05-19T20:39:56.434Z,94260.45
2019-05-19T20:42:22.576Z,94244.98
2019-05-19T20:44:50.119Z,94247.01
2019-05-19T20:47:16.262Z,94258.20
2019-05-19T20:49:42.270Z,94267.40
2019-05-19T20:52:08.313Z,94271.39
2019-05-19T20:54:34.316Z,94278.05
2019-05-19T20:57:00.349Z,94290.86
2019-05-19T20:59:26.374Z,94279.80
2019-05-19T21:01:52.471Z,94265.05
2019-05-19T21:04:18.515Z,94259.31
2019-05-19T21:06:44.677Z,94286.23
2019-05-19T21:09:10.806Z,94296.25
2019-05-19T21:11:36.818Z,94283.16
2019-05-19T21:14:02.941Z,94287.47
2019-05-19T21:16:28.968Z,94283.98
2019-05-19T21:18:54.985Z,94294.92
2019-05-19T21:21:21.022Z,94292.89
2019-05-19T21:23:47.026Z,94291.97
2019-05-19T21:26:13.060Z,94276.50
2019-05-19T21:28:39.066Z,94279.16
2019-05-19T21:31:06.327Z,94301.52
2019-05-19T21:33:31.120Z,94304.59
2019-05-19T21:35:57.173Z,94298.86
2019-05-19T21:38:23.198Z,94293.02
2019-05-19T21:40:49.211Z,94297.11
2019-05-19T21:43:15.348Z,94291.28
2019-05-19T21:45:41.356Z,94296.19
2019-05-19T21:48:07.487Z,94316.17
2019-05-19T21:50:33.519Z,94282.46
2019-05-19T21:52:59.531Z,94284.71
2019-05-19T21:55:25.552Z,94286.59
2019-05-19T21:57:51.696Z,94273.64
2019-05-19T22:00:17.846Z,94273.27
2019-05-19T22:02:43.889Z,94266.61
2019-05-19T22:05:09.893Z,94284.84
2019-05-19T22:07:35.941Z,94280.84
2019-05-19T22:10:01.947Z,94284.94
2019-05-19T22:12:27.975Z,94278.28
2019-05-19T22:14:53.976Z,94284.43
2019-05-19T22:17:19.997Z,94272.53
2019-05-19T22:19:46.123Z,94291.59
2019-05-19T22:22:12.141Z,94299.17
2019-05-19T22:24:38.163Z,94296.09
2019-05-19T22:27:04.173Z,94289.44
2019-05-19T22:29:30.238Z,94288.11
2019-05-19T22:31:56.250Z,94277.45
2019-05-19T22:34:22.371Z,94285.06
2019-05-19T22:36:48.406Z,94290.39
2019-05-19T22:39:14.421Z,94301.55
2019-05-19T22:41:40.457Z,94302.06
2019-05-19T22:44:06.467Z,94295.30
2019-05-19T22:46:32.596Z,94294.89
2019-05-19T22:48:58.609Z,94292.23
2019-05-19T22:51:24.649Z,94286.08
2019-05-19T22:53:50.659Z,94284.75
2019-05-19T22:56:16.671Z,94289.56
2019-05-19T22:58:42.722Z,94288.74
2019-05-19T23:01:08.728Z,94280.34
2019-05-19T23:03:34.767Z,94284.75
2019-05-19T23:06:00.798Z,94291.95
2019-05-19T23:08:26.809Z,94299.52
2019-05-19T23:10:52.836Z,94311.92
2019-05-19T23:13:18.843Z,94293.78
2019-05-19T23:15:44.861Z,94299.94
2019-05-19T23:18:10.919Z,94299.94
2019-05-19T23:20:36.923Z,94302.19
2019-05-19T23:23:02.950Z,94286.71
2019-05-19T23:25:28.963Z,94291.63
2019-05-19T23:27:55.019Z,94296.45
2019-05-19T23:30:21.027Z,94330.16
2019-05-19T23:32:47.054Z,94320.29
2019-05-19T23:35:13.080Z,94312.43
2019-05-19T23:37:39.093Z,94291.13
2019-05-19T23:40:05.140Z,94304.03
2019-05-19T23:42:31.145Z,94311.09
2019-05-19T23:44:57.196Z,94302.69
2019-05-19T23:47:23.197Z,94298.70
2019-05-19T23:49:49.227Z,94309.35
2019-05-19T23:52:15.245Z,94324.92
2019-05-19T23:54:41.247Z,94327.17
2019-05-19T23:57:07.304Z,94310.27
2019-05-19T23:59:33.323Z,94303.20
